sensor_id;sensor_type;location;lat;lon;timestamp;P1;durP1;ratioP1;P2;durP2;ratioP2
69185;SDS011;56298;49.246;9.410;2023-03-23T00:01:19;4.13;;;1.40;;
69185;SDS011;56298;49.246;9.410;2023-03-23T00:03:46;4.25;;;1.30;;
69185;SDS011;56298;49.246;9.410;2023-03-23T00:06:16;4.18;;;1.30;;
69185;SDS011;56298;49.246;9.410;2023-03-23T00:08:44;4.33;;;1.20;;
69185;SDS011;56298;49.246;9.410;2023-03-23T00:11:11;3.97;;;1.20;;
69185;SDS011;56298;49.246;9.410;2023-03-23T00:13:39;4.15;;;1.30;;
69185;SDS011;56298;49.246;9.410;2023-03-23T00:16:05;4.35;;;1.27;;
69185;SDS011;56298;49.246;9.410;2023-03-23T00:18:45;3.63;;;1.38;;
69185;SDS011;56298;49.246;9.410;2023-03-23T00:21:12;4.90;;;1.25;;
69185;SDS011;56298;49.246;9.410;2023-03-23T00:23:37;3.58;;;1.20;;
69185;SDS011;56298;49.246;9.410;2023-03-23T00:26:04;3.50;;;1.20;;
69185;SDS011;56298;49.246;9.410;2023-03-23T00:28:29;3.20;;;1.10;;
69185;SDS011;56298;49.246;9.410;2023-03-23T00:30:55;3.37;;;1.20;;
69185;SDS011;56298;49.246;9.410;2023-03-23T00:33:23;3.67;;;1.17;;
69185;SDS011;56298;49.246;9.410;2023-03-23T00:35:49;3.35;;;1.10;;
69185;SDS011;56298;49.246;9.410;2023-03-23T00:38:17;4.72;;;1.20;;
69185;SDS011;56298;49.246;9.410;2023-03-23T00:40:44;3.53;;;1.20;;
69185;SDS011;56298;49.246;9.410;2023-03-23T00:43:09;3.87;;;1.20;;
69185;SDS011;56298;49.246;9.410;2023-03-23T00:45:38;3.72;;;1.30;;
69185;SDS011;56298;49.246;9.410;2023-03-23T00:48:03;4.40;;;1.30;;
69185;SDS011;56298;49.246;9.410;2023-03-23T00:50:30;4.18;;;1.40;;
69185;SDS011;56298;49.246;9.410;2023-03-23T00:52:55;4.18;;;1.17;;
69185;SDS011;56298;49.246;9.410;2023-03-23T00:55:21;3.30;;;1.25;;
69185;SDS011;56298;49.246;9.410;2023-03-23T00:57:47;3.90;;;1.33;;
69185;SDS011;56298;49.246;9.410;2023-03-23T01:00:15;3.20;;;1.13;;
69185;SDS011;56298;49.246;9.410;2023-03-23T01:02:41;3.50;;;1.25;;
69185;SDS011;56298;49.246;9.410;2023-03-23T01:05:09;3.72;;;1.30;;
69185;SDS011;56298;49.246;9.410;2023-03-23T01:07:34;3.90;;;1.15;;
69185;SDS011;56298;49.246;9.410;2023-03-23T01:10:00;3.30;;;1.23;;
69185;SDS011;56298;49.246;9.410;2023-03-23T01:12:25;4.10;;;1.30;;
69185;SDS011;56298;49.246;9.410;2023-03-23T01:14:51;3.30;;;1.20;;
69185;SDS011;56298;49.246;9.410;2023-03-23T01:17:16;3.30;;;1.27;;
69185;SDS011;56298;49.246;9.410;2023-03-23T01:19:41;3.83;;;1.33;;
69185;SDS011;56298;49.246;9.410;2023-03-23T01:22:07;4.77;;;1.33;;
69185;SDS011;56298;49.246;9.410;2023-03-23T01:24:32;4.10;;;1.17;;
69185;SDS011;56298;49.246;9.410;2023-03-23T01:26:57;3.50;;;1.40;;
69185;SDS011;56298;49.246;9.410;2023-03-23T01:29:26;4.30;;;1.70;;
69185;SDS011;56298;49.246;9.410;2023-03-23T01:31:52;4.30;;;1.30;;
69185;SDS011;56298;49.246;9.410;2023-03-23T01:34:17;3.57;;;1.30;;
69185;SDS011;56298;49.246;9.410;2023-03-23T01:36:42;3.80;;;1.50;;
69185;SDS011;56298;49.246;9.410;2023-03-23T01:39:07;3.70;;;1.40;;
69185;SDS011;56298;49.246;9.410;2023-03-23T01:41:34;3.93;;;1.50;;
69185;SDS011;56298;49.246;9.410;2023-03-23T01:44:03;4.37;;;1.40;;
69185;SDS011;56298;49.246;9.410;2023-03-23T01:46:52;4.03;;;1.55;;
69185;SDS011;56298;49.246;9.410;2023-03-23T01:49:21;4.10;;;1.40;;
69185;SDS011;56298;49.246;9.410;2023-03-23T01:51:53;3.40;;;1.30;;
69185;SDS011;56298;49.246;9.410;2023-03-23T01:54:21;3.55;;;1.38;;
69185;SDS011;56298;49.246;9.410;2023-03-23T01:56:55;3.80;;;1.23;;
69185;SDS011;56298;49.246;9.410;2023-03-23T01:59:23;3.88;;;1.45;;
69185;SDS011;56298;49.246;9.410;2023-03-23T02:01:50;4.80;;;1.70;;
69185;SDS011;56298;49.246;9.410;2023-03-23T02:04:17;3.90;;;1.40;;
69185;SDS011;56298;49.246;9.410;2023-03-23T02:06:43;4.33;;;1.60;;
69185;SDS011;56298;49.246;9.410;2023-03-23T02:09:10;4.32;;;1.30;;
69185;SDS011;56298;49.246;9.410;2023-03-23T02:11:38;4.93;;;1.35;;
69185;SDS011;56298;49.246;9.410;2023-03-23T02:14:04;4.60;;;1.60;;
69185;SDS011;56298;49.246;9.410;2023-03-23T02:16:40;4.13;;;1.50;;
69185;SDS011;56298;49.246;9.410;2023-03-23T02:19:27;5.07;;;1.92;;
69185;SDS011;56298;49.246;9.410;2023-03-23T02:22:11;4.40;;;1.60;;
69185;SDS011;56298;49.246;9.410;2023-03-23T02:25:05;3.87;;;1.43;;
69185;SDS011;56298;49.246;9.410;2023-03-23T02:30:40;3.40;;;1.40;;
69185;SDS011;56298;49.246;9.410;2023-03-23T02:33:15;5.20;;;1.63;;
69185;SDS011;56298;49.246;9.410;2023-03-23T02:35:44;3.45;;;1.58;;
69185;SDS011;56298;49.246;9.410;2023-03-23T02:38:16;4.45;;;1.92;;
69185;SDS011;56298;49.246;9.410;2023-03-23T02:40:46;3.50;;;1.40;;
69185;SDS011;56298;49.246;9.410;2023-03-23T02:43:15;3.80;;;1.42;;
69185;SDS011;56298;49.246;9.410;2023-03-23T02:45:45;4.85;;;1.63;;
69185;SDS011;56298;49.246;9.410;2023-03-23T02:48:11;4.05;;;1.58;;
69185;SDS011;56298;49.246;9.410;2023-03-23T02:50:40;4.45;;;1.98;;
69185;SDS011;56298;49.246;9.410;2023-03-23T02:53:09;4.22;;;1.50;;
69185;SDS011;56298;49.246;9.410;2023-03-23T02:55:38;4.22;;;1.52;;
69185;SDS011;56298;49.246;9.410;2023-03-23T02:58:07;4.65;;;1.80;;
69185;SDS011;56298;49.246;9.410;2023-03-23T03:00:36;3.35;;;1.42;;
69185;SDS011;56298;49.246;9.410;2023-03-23T03:03:02;4.78;;;1.75;;
69185;SDS011;56298;49.246;9.410;2023-03-23T03:05:38;3.60;;;1.20;;
69185;SDS011;56298;49.246;9.410;2023-03-23T03:08:15;4.85;;;1.55;;
69185;SDS011;56298;49.246;9.410;2023-03-23T03:11:06;4.10;;;1.50;;
69185;SDS011;56298;49.246;9.410;2023-03-23T03:13:47;4.15;;;1.40;;
69185;SDS011;56298;49.246;9.410;2023-03-23T03:21:44;4.77;;;1.50;;
69185;SDS011;56298;49.246;9.410;2023-03-23T03:24:12;5.47;;;1.63;;
69185;SDS011;56298;49.246;9.410;2023-03-23T03:26:43;4.32;;;1.70;;
69185;SDS011;56298;49.246;9.410;2023-03-23T03:29:17;3.88;;;1.60;;
69185;SDS011;56298;49.246;9.410;2023-03-23T03:31:45;3.88;;;1.77;;
69185;SDS011;56298;49.246;9.410;2023-03-23T03:34:13;3.88;;;1.60;;
69185;SDS011;56298;49.246;9.410;2023-03-23T03:36:42;4.68;;;1.65;;
69185;SDS011;56298;49.246;9.410;2023-03-23T03:39:10;4.28;;;1.48;;
69185;SDS011;56298;49.246;9.410;2023-03-23T03:41:37;4.30;;;1.55;;
69185;SDS011;56298;49.246;9.410;2023-03-23T03:44:04;4.80;;;1.50;;
69185;SDS011;56298;49.246;9.410;2023-03-23T03:46:31;4.13;;;1.75;;
69185;SDS011;56298;49.246;9.410;2023-03-23T03:48:57;4.33;;;1.70;;
69185;SDS011;56298;49.246;9.410;2023-03-23T03:51:23;4.70;;;1.57;;
69185;SDS011;56298;49.246;9.410;2023-03-23T03:53:50;4.63;;;1.60;;
69185;SDS011;56298;49.246;9.410;2023-03-23T03:56:15;3.90;;;1.70;;
69185;SDS011;56298;49.246;9.410;2023-03-23T03:58:40;4.70;;;2.07;;
69185;SDS011;56298;49.246;9.410;2023-03-23T04:01:07;5.10;;;1.80;;
69185;SDS011;56298;49.246;9.410;2023-03-23T04:03:35;3.63;;;1.50;;
69185;SDS011;56298;49.246;9.410;2023-03-23T04:06:00;4.93;;;1.83;;
69185;SDS011;56298;49.246;9.410;2023-03-23T04:08:26;4.20;;;1.60;;
69185;SDS011;56298;49.246;9.410;2023-03-23T04:10:51;5.27;;;1.63;;
69185;SDS011;56298;49.246;9.410;2023-03-23T04:13:18;3.88;;;1.60;;
69185;SDS011;56298;49.246;9.410;2023-03-23T04:15:44;3.87;;;1.53;;
69185;SDS011;56298;49.246;9.410;2023-03-23T04:18:10;4.03;;;1.92;;
69185;SDS011;56298;49.246;9.410;2023-03-23T04:20:35;5.13;;;1.70;;
69185;SDS011;56298;49.246;9.410;2023-03-23T04:23:02;4.45;;;1.77;;
69185;SDS011;56298;49.246;9.410;2023-03-23T04:25:27;3.93;;;1.60;;
69185;SDS011;56298;49.246;9.410;2023-03-23T04:27:53;3.67;;;1.60;;
69185;SDS011;56298;49.246;9.410;2023-03-23T04:30:19;4.30;;;1.73;;
69185;SDS011;56298;49.246;9.410;2023-03-23T04:32:49;4.90;;;1.73;;
69185;SDS011;56298;49.246;9.410;2023-03-23T04:35:17;4.73;;;1.60;;
69185;SDS011;56298;49.246;9.410;2023-03-23T04:37:44;4.20;;;1.83;;
69185;SDS011;56298;49.246;9.410;2023-03-23T04:40:12;4.60;;;1.75;;
69185;SDS011;56298;49.246;9.410;2023-03-23T04:42:40;4.78;;;1.75;;
69185;SDS011;56298;49.246;9.410;2023-03-23T04:45:10;4.20;;;1.60;;
69185;SDS011;56298;49.246;9.410;2023-03-23T04:47:39;4.45;;;1.90;;
69185;SDS011;56298;49.246;9.410;2023-03-23T04:50:09;4.20;;;1.70;;
69185;SDS011;56298;49.246;9.410;2023-03-23T04:52:38;4.43;;;1.75;;
69185;SDS011;56298;49.246;9.410;2023-03-23T04:55:05;4.82;;;1.88;;
69185;SDS011;56298;49.246;9.410;2023-03-23T04:57:32;4.73;;;1.60;;
69185;SDS011;56298;49.246;9.410;2023-03-23T04:59:58;4.10;;;1.60;;
69185;SDS011;56298;49.246;9.410;2023-03-23T05:02:24;4.53;;;1.58;;
69185;SDS011;56298;49.246;9.410;2023-03-23T05:04:50;4.00;;;1.63;;
69185;SDS011;56298;49.246;9.410;2023-03-23T05:07:15;3.63;;;1.50;;
69185;SDS011;56298;49.246;9.410;2023-03-23T05:09:41;4.30;;;1.80;;
69185;SDS011;56298;49.246;9.410;2023-03-23T05:12:07;4.00;;;1.70;;
69185;SDS011;56298;49.246;9.410;2023-03-23T05:14:34;3.58;;;1.63;;
69185;SDS011;56298;49.246;9.410;2023-03-23T05:16:59;4.30;;;1.80;;
69185;SDS011;56298;49.246;9.410;2023-03-23T05:19:24;4.83;;;1.80;;
69185;SDS011;56298;49.246;9.410;2023-03-23T05:21:50;4.27;;;1.73;;
69185;SDS011;56298;49.246;9.410;2023-03-23T05:24:15;5.80;;;1.80;;
69185;SDS011;56298;49.246;9.410;2023-03-23T05:26:40;5.53;;;1.92;;
69185;SDS011;56298;49.246;9.410;2023-03-23T05:29:06;5.13;;;1.73;;
69185;SDS011;56298;49.246;9.410;2023-03-23T05:31:31;4.47;;;1.73;;
69185;SDS011;56298;49.246;9.410;2023-03-23T05:33:57;4.78;;;1.67;;
69185;SDS011;56298;49.246;9.410;2023-03-23T05:36:22;4.40;;;2.10;;
69185;SDS011;56298;49.246;9.410;2023-03-23T05:38:48;4.20;;;1.80;;
69185;SDS011;56298;49.246;9.410;2023-03-23T05:41:14;4.63;;;1.83;;
69185;SDS011;56298;49.246;9.410;2023-03-23T05:43:40;4.60;;;1.80;;
69185;SDS011;56298;49.246;9.410;2023-03-23T05:46:06;7.78;;;3.40;;
69185;SDS011;56298;49.246;9.410;2023-03-23T05:48:32;6.07;;;2.75;;
69185;SDS011;56298;49.246;9.410;2023-03-23T05:50:57;10.10;;;4.93;;
69185;SDS011;56298;49.246;9.410;2023-03-23T05:53:23;4.87;;;1.90;;
69185;SDS011;56298;49.246;9.410;2023-03-23T05:55:49;4.50;;;1.60;;
69185;SDS011;56298;49.246;9.410;2023-03-23T05:58:14;4.20;;;1.77;;
69185;SDS011;56298;49.246;9.410;2023-03-23T06:00:39;4.65;;;1.75;;
69185;SDS011;56298;49.246;9.410;2023-03-23T06:03:05;5.10;;;2.40;;
69185;SDS011;56298;49.246;9.410;2023-03-23T06:05:30;10.77;;;5.20;;
69185;SDS011;56298;49.246;9.410;2023-03-23T06:10:26;6.43;;;2.72;;
69185;SDS011;56298;49.246;9.410;2023-03-23T06:12:52;6.70;;;2.93;;
69185;SDS011;56298;49.246;9.410;2023-03-23T06:15:17;7.47;;;2.90;;
69185;SDS011;56298;49.246;9.410;2023-03-23T06:17:43;5.93;;;1.73;;
69185;SDS011;56298;49.246;9.410;2023-03-23T06:20:09;5.50;;;1.97;;
69185;SDS011;56298;49.246;9.410;2023-03-23T06:22:36;4.82;;;1.98;;
69185;SDS011;56298;49.246;9.410;2023-03-23T06:25:03;4.28;;;1.70;;
69185;SDS011;56298;49.246;9.410;2023-03-23T06:27:29;6.63;;;2.47;;
69185;SDS011;56298;49.246;9.410;2023-03-23T06:29:55;6.97;;;2.30;;
69185;SDS011;56298;49.246;9.410;2023-03-23T06:32:21;5.22;;;2.03;;
69185;SDS011;56298;49.246;9.410;2023-03-23T06:34:47;5.07;;;1.83;;
69185;SDS011;56298;49.246;9.410;2023-03-23T06:37:13;5.00;;;2.27;;
69185;SDS011;56298;49.246;9.410;2023-03-23T06:39:38;4.67;;;1.70;;
69185;SDS011;56298;49.246;9.410;2023-03-23T06:42:04;5.37;;;1.87;;
69185;SDS011;56298;49.246;9.410;2023-03-23T06:44:30;5.68;;;2.45;;
69185;SDS011;56298;49.246;9.410;2023-03-23T06:46:55;6.37;;;2.37;;
69185;SDS011;56298;49.246;9.410;2023-03-23T06:49:20;6.17;;;2.50;;
69185;SDS011;56298;49.246;9.410;2023-03-23T06:51:47;17.47;;;8.83;;
69185;SDS011;56298;49.246;9.410;2023-03-23T06:54:12;9.77;;;6.63;;
69185;SDS011;56298;49.246;9.410;2023-03-23T06:56:37;12.80;;;10.60;;
69185;SDS011;56298;49.246;9.410;2023-03-23T06:59:02;6.53;;;3.03;;
69185;SDS011;56298;49.246;9.410;2023-03-23T07:01:28;6.13;;;2.20;;
69185;SDS011;56298;49.246;9.410;2023-03-23T07:03:54;5.17;;;2.30;;
69185;SDS011;56298;49.246;9.410;2023-03-23T07:06:20;6.55;;;2.80;;
69185;SDS011;56298;49.246;9.410;2023-03-23T07:08:46;6.60;;;2.83;;
69185;SDS011;56298;49.246;9.410;2023-03-23T07:11:11;6.73;;;2.80;;
69185;SDS011;56298;49.246;9.410;2023-03-23T07:13:37;4.77;;;2.23;;
69185;SDS011;56298;49.246;9.410;2023-03-23T07:16:04;5.33;;;2.50;;
69185;SDS011;56298;49.246;9.410;2023-03-23T07:18:31;6.20;;;2.27;;
69185;SDS011;56298;49.246;9.410;2023-03-23T07:20:56;5.55;;;2.00;;
69185;SDS011;56298;49.246;9.410;2023-03-23T07:23:21;5.53;;;1.70;;
69185;SDS011;56298;49.246;9.410;2023-03-23T07:25:47;6.10;;;2.20;;
69185;SDS011;56298;49.246;9.410;2023-03-23T07:28:13;5.93;;;2.10;;
69185;SDS011;56298;49.246;9.410;2023-03-23T07:30:39;6.57;;;2.15;;
69185;SDS011;56298;49.246;9.410;2023-03-23T07:33:05;7.20;;;2.30;;
69185;SDS011;56298;49.246;9.410;2023-03-23T07:35:31;5.80;;;2.30;;
69185;SDS011;56298;49.246;9.410;2023-03-23T07:37:58;5.80;;;2.30;;
69185;SDS011;56298;49.246;9.410;2023-03-23T07:40:27;5.70;;;2.60;;
69185;SDS011;56298;49.246;9.410;2023-03-23T07:42:53;5.75;;;2.42;;
69185;SDS011;56298;49.246;9.410;2023-03-23T07:45:20;5.95;;;2.40;;
69185;SDS011;56298;49.246;9.410;2023-03-23T07:47:46;4.60;;;2.20;;
69185;SDS011;56298;49.246;9.410;2023-03-23T07:50:11;7.38;;;2.47;;
69185;SDS011;56298;49.246;9.410;2023-03-23T07:52:37;5.10;;;2.27;;
69185;SDS011;56298;49.246;9.410;2023-03-23T07:55:03;5.90;;;2.30;;
69185;SDS011;56298;49.246;9.410;2023-03-23T07:57:30;6.10;;;2.47;;
69185;SDS011;56298;49.246;9.410;2023-03-23T07:59:56;6.60;;;2.30;;
69185;SDS011;56298;49.246;9.410;2023-03-23T08:02:22;7.35;;;2.70;;
69185;SDS011;56298;49.246;9.410;2023-03-23T08:04:48;6.70;;;2.40;;
69185;SDS011;56298;49.246;9.410;2023-03-23T08:07:13;4.40;;;2.10;;
69185;SDS011;56298;49.246;9.410;2023-03-23T08:09:41;6.72;;;2.40;;
69185;SDS011;56298;49.246;9.410;2023-03-23T08:12:06;5.35;;;2.08;;
69185;SDS011;56298;49.246;9.410;2023-03-23T08:14:32;5.33;;;2.00;;
69185;SDS011;56298;49.246;9.410;2023-03-23T08:16:57;4.93;;;2.17;;
69185;SDS011;56298;49.246;9.410;2023-03-23T08:19:23;5.88;;;2.20;;
69185;SDS011;56298;49.246;9.410;2023-03-23T08:21:49;6.33;;;2.20;;
69185;SDS011;56298;49.246;9.410;2023-03-23T08:24:15;5.70;;;1.90;;
69185;SDS011;56298;49.246;9.410;2023-03-23T08:26:40;7.77;;;2.07;;
69185;SDS011;56298;49.246;9.410;2023-03-23T08:29:06;6.55;;;2.40;;
69185;SDS011;56298;49.246;9.410;2023-03-23T08:31:32;7.70;;;2.10;;
69185;SDS011;56298;49.246;9.410;2023-03-23T08:33:59;5.28;;;2.00;;
69185;SDS011;56298;49.246;9.410;2023-03-23T08:36:25;5.03;;;1.95;;
69185;SDS011;56298;49.246;9.410;2023-03-23T08:38:51;4.80;;;2.03;;
69185;SDS011;56298;49.246;9.410;2023-03-23T08:41:17;5.72;;;2.08;;
69185;SDS011;56298;49.246;9.410;2023-03-23T08:43:42;5.07;;;2.10;;
69185;SDS011;56298;49.246;9.410;2023-03-23T08:46:08;5.23;;;1.97;;
69185;SDS011;56298;49.246;9.410;2023-03-23T08:48:36;5.10;;;1.97;;
69185;SDS011;56298;49.246;9.410;2023-03-23T08:51:02;5.45;;;1.90;;
69185;SDS011;56298;49.246;9.410;2023-03-23T08:53:28;6.57;;;1.95;;
69185;SDS011;56298;49.246;9.410;2023-03-23T08:56:02;5.63;;;1.67;;
69185;SDS011;56298;49.246;9.410;2023-03-23T08:58:33;4.88;;;1.52;;
69185;SDS011;56298;49.246;9.410;2023-03-23T09:01:02;32.70;;;3.43;;
69185;SDS011;56298;49.246;9.410;2023-03-23T09:03:29;5.25;;;1.70;;
69185;SDS011;56298;49.246;9.410;2023-03-23T09:05:59;6.23;;;1.90;;
69185;SDS011;56298;49.246;9.410;2023-03-23T09:08:25;4.30;;;1.85;;
69185;SDS011;56298;49.246;9.410;2023-03-23T09:10:53;4.50;;;1.80;;
69185;SDS011;56298;49.246;9.410;2023-03-23T09:13:18;4.60;;;1.60;;
69185;SDS011;56298;49.246;9.410;2023-03-23T09:15:44;5.93;;;1.70;;
69185;SDS011;56298;49.246;9.410;2023-03-23T09:18:09;5.70;;;1.88;;
69185;SDS011;56298;49.246;9.410;2023-03-23T09:20:35;4.97;;;2.03;;
69185;SDS011;56298;49.246;9.410;2023-03-23T09:23:02;4.70;;;1.90;;
69185;SDS011;56298;49.246;9.410;2023-03-23T09:25:27;5.60;;;2.00;;
69185;SDS011;56298;49.246;9.410;2023-03-23T09:27:56;5.40;;;2.30;;
69185;SDS011;56298;49.246;9.410;2023-03-23T09:30:24;5.82;;;1.95;;
69185;SDS011;56298;49.246;9.410;2023-03-23T09:32:51;4.55;;;2.05;;
69185;SDS011;56298;49.246;9.410;2023-03-23T09:35:17;5.75;;;2.30;;
69185;SDS011;56298;49.246;9.410;2023-03-23T09:37:43;5.20;;;1.70;;
69185;SDS011;56298;49.246;9.410;2023-03-23T09:40:11;5.43;;;2.00;;
69185;SDS011;56298;49.246;9.410;2023-03-23T09:42:46;4.80;;;1.93;;
69185;SDS011;56298;49.246;9.410;2023-03-23T09:45:24;6.57;;;1.88;;
69185;SDS011;56298;49.246;9.410;2023-03-23T09:53:22;4.90;;;1.73;;
69185;SDS011;56298;49.246;9.410;2023-03-23T09:56:01;5.15;;;1.85;;
69185;SDS011;56298;49.246;9.410;2023-03-23T09:58:33;5.03;;;1.88;;
69185;SDS011;56298;49.246;9.410;2023-03-23T10:01:21;5.00;;;2.20;;
69185;SDS011;56298;49.246;9.410;2023-03-23T10:03:52;4.82;;;1.90;;
69185;SDS011;56298;49.246;9.410;2023-03-23T10:06:25;5.72;;;1.90;;
69185;SDS011;56298;49.246;9.410;2023-03-23T10:08:51;5.37;;;2.13;;
69185;SDS011;56298;49.246;9.410;2023-03-23T10:11:22;6.03;;;2.28;;
69185;SDS011;56298;49.246;9.410;2023-03-23T10:16:42;4.50;;;2.10;;
69185;SDS011;56298;49.246;9.410;2023-03-23T10:22:25;6.45;;;2.40;;
69185;SDS011;56298;49.246;9.410;2023-03-23T10:35:47;6.07;;;2.08;;
69185;SDS011;56298;49.246;9.410;2023-03-23T10:38:19;7.72;;;1.88;;
69185;SDS011;56298;49.246;9.410;2023-03-23T10:40:55;5.55;;;1.98;;
69185;SDS011;56298;49.246;9.410;2023-03-23T10:43:23;4.57;;;1.73;;
69185;SDS011;56298;49.246;9.410;2023-03-23T10:45:53;4.93;;;2.00;;
69185;SDS011;56298;49.246;9.410;2023-03-23T10:48:24;4.60;;;1.70;;
69185;SDS011;56298;49.246;9.410;2023-03-23T10:50:55;8.00;;;2.05;;
69185;SDS011;56298;49.246;9.410;2023-03-23T10:53:25;4.28;;;1.77;;
69185;SDS011;56298;49.246;9.410;2023-03-23T10:55:57;4.75;;;1.80;;
69185;SDS011;56298;49.246;9.410;2023-03-23T10:58:24;6.25;;;2.70;;
69185;SDS011;56298;49.246;9.410;2023-03-23T11:00:54;4.82;;;2.00;;
69185;SDS011;56298;49.246;9.410;2023-03-23T11:03:22;4.60;;;2.13;;
69185;SDS011;56298;49.246;9.410;2023-03-23T11:05:52;4.95;;;1.80;;
69185;SDS011;56298;49.246;9.410;2023-03-23T11:08:23;4.32;;;1.83;;
69185;SDS011;56298;49.246;9.410;2023-03-23T11:10:56;5.07;;;1.92;;
69185;SDS011;56298;49.246;9.410;2023-03-23T11:13:44;5.82;;;1.80;;
69185;SDS011;56298;49.246;9.410;2023-03-23T11:16:24;5.20;;;1.95;;
69185;SDS011;56298;49.246;9.410;2023-03-23T11:18:56;5.53;;;1.60;;
69185;SDS011;56298;49.246;9.410;2023-03-23T11:21:36;5.22;;;1.85;;
69185;SDS011;56298;49.246;9.410;2023-03-23T11:24:03;4.57;;;1.83;;
69185;SDS011;56298;49.246;9.410;2023-03-23T11:26:33;5.28;;;1.55;;
69185;SDS011;56298;49.246;9.410;2023-03-23T11:29:11;4.33;;;1.73;;
69185;SDS011;56298;49.246;9.410;2023-03-23T11:31:47;4.55;;;1.60;;
69185;SDS011;56298;49.246;9.410;2023-03-23T11:36:51;4.20;;;1.75;;
69185;SDS011;56298;49.246;9.410;2023-03-23T11:39:27;4.68;;;1.55;;
69185;SDS011;56298;49.246;9.410;2023-03-23T11:41:57;5.07;;;1.80;;
69185;SDS011;56298;49.246;9.410;2023-03-23T11:44:30;6.30;;;1.92;;
69185;SDS011;56298;49.246;9.410;2023-03-23T11:50:16;5.63;;;1.60;;
69185;SDS011;56298;49.246;9.410;2023-03-23T11:55:15;4.93;;;1.77;;
69185;SDS011;56298;49.246;9.410;2023-03-23T11:57:46;4.90;;;1.75;;
69185;SDS011;56298;49.246;9.410;2023-03-23T12:00:19;4.07;;;1.50;;
69185;SDS011;56298;49.246;9.410;2023-03-23T12:02:57;4.57;;;1.70;;
69185;SDS011;56298;49.246;9.410;2023-03-23T12:05:32;4.97;;;1.90;;
69185;SDS011;56298;49.246;9.410;2023-03-23T12:25:51;4.97;;;1.75;;
69185;SDS011;56298;49.246;9.410;2023-03-23T12:31:11;8.73;;;2.97;;
69185;SDS011;56298;49.246;9.410;2023-03-23T12:33:48;5.38;;;2.65;;
69185;SDS011;56298;49.246;9.410;2023-03-23T12:44:47;5.30;;;2.00;;
69185;SDS011;56298;49.246;9.410;2023-03-23T12:50:12;4.43;;;2.10;;
69185;SDS011;56298;49.246;9.410;2023-03-23T12:52:43;5.32;;;1.90;;
69185;SDS011;56298;49.246;9.410;2023-03-23T12:57:54;4.80;;;2.07;;
69185;SDS011;56298;49.246;9.410;2023-03-23T13:03:31;6.72;;;2.47;;
69185;SDS011;56298;49.246;9.410;2023-03-23T13:08:48;7.63;;;2.92;;
69185;SDS011;56298;49.246;9.410;2023-03-23T13:11:20;6.82;;;3.00;;
69185;SDS011;56298;49.246;9.410;2023-03-23T13:13:54;5.57;;;2.10;;
69185;SDS011;56298;49.246;9.410;2023-03-23T13:19:04;4.97;;;2.33;;
69185;SDS011;56298;49.246;9.410;2023-03-23T13:21:41;4.83;;;2.00;;
69185;SDS011;56298;49.246;9.410;2023-03-23T13:24:15;5.22;;;2.00;;
69185;SDS011;56298;49.246;9.410;2023-03-23T13:26:45;4.80;;;1.98;;
69185;SDS011;56298;49.246;9.410;2023-03-23T13:29:15;5.07;;;2.05;;
69185;SDS011;56298;49.246;9.410;2023-03-23T13:31:44;5.28;;;2.20;;
69185;SDS011;56298;49.246;9.410;2023-03-23T13:34:15;5.80;;;2.10;;
69185;SDS011;56298;49.246;9.410;2023-03-23T13:36:42;6.60;;;2.00;;
69185;SDS011;56298;49.246;9.410;2023-03-23T13:39:26;5.05;;;2.10;;
69185;SDS011;56298;49.246;9.410;2023-03-23T13:44:40;5.43;;;2.05;;
69185;SDS011;56298;49.246;9.410;2023-03-23T13:47:16;5.32;;;2.10;;
69185;SDS011;56298;49.246;9.410;2023-03-23T13:49:57;5.82;;;2.00;;
69185;SDS011;56298;49.246;9.410;2023-03-23T13:55:30;5.40;;;2.85;;
69185;SDS011;56298;49.246;9.410;2023-03-23T14:03:16;4.63;;;2.13;;
69185;SDS011;56298;49.246;9.410;2023-03-23T14:06:05;5.18;;;2.15;;
69185;SDS011;56298;49.246;9.410;2023-03-23T14:10:57;5.00;;;2.10;;
69185;SDS011;56298;49.246;9.410;2023-03-23T14:16:15;7.45;;;2.22;;
69185;SDS011;56298;49.246;9.410;2023-03-23T14:19:37;5.70;;;2.50;;
69185;SDS011;56298;49.246;9.410;2023-03-23T14:24:21;5.15;;;2.33;;
69185;SDS011;56298;49.246;9.410;2023-03-23T14:26:49;5.33;;;1.97;;
69185;SDS011;56298;49.246;9.410;2023-03-23T14:29:17;5.13;;;2.28;;
69185;SDS011;56298;49.246;9.410;2023-03-23T14:31:44;6.10;;;2.20;;
69185;SDS011;56298;49.246;9.410;2023-03-23T14:34:18;4.68;;;2.17;;
69185;SDS011;56298;49.246;9.410;2023-03-23T14:36:44;5.90;;;2.00;;
69185;SDS011;56298;49.246;9.410;2023-03-23T14:41:56;5.85;;;2.20;;
69185;SDS011;56298;49.246;9.410;2023-03-23T14:44:29;5.00;;;2.20;;
69185;SDS011;56298;49.246;9.410;2023-03-23T14:46:57;5.68;;;2.28;;
69185;SDS011;56298;49.246;9.410;2023-03-23T14:49:37;5.05;;;2.25;;
69185;SDS011;56298;49.246;9.410;2023-03-23T14:54:39;5.45;;;2.35;;
69185;SDS011;56298;49.246;9.410;2023-03-23T14:57:17;5.68;;;2.30;;
69185;SDS011;56298;49.246;9.410;2023-03-23T14:59:52;6.30;;;2.30;;
69185;SDS011;56298;49.246;9.410;2023-03-23T15:04:54;6.07;;;2.38;;
69185;SDS011;56298;49.246;9.410;2023-03-23T15:07:24;5.18;;;2.20;;
69185;SDS011;56298;49.246;9.410;2023-03-23T15:09:52;6.00;;;2.07;;
69185;SDS011;56298;49.246;9.410;2023-03-23T15:12:21;7.10;;;2.23;;
69185;SDS011;56298;49.246;9.410;2023-03-23T15:14:53;6.30;;;2.95;;
69185;SDS011;56298;49.246;9.410;2023-03-23T15:17:21;33.70;;;17.98;;
69185;SDS011;56298;49.246;9.410;2023-03-23T15:19:49;15.23;;;7.80;;
69185;SDS011;56298;49.246;9.410;2023-03-23T15:24:47;110.38;;;37.92;;
69185;SDS011;56298;49.246;9.410;2023-03-23T15:27:16;15.70;;;6.03;;
69185;SDS011;56298;49.246;9.410;2023-03-23T15:29:56;170.55;;;50.67;;
69185;SDS011;56298;49.246;9.410;2023-03-23T15:32:38;388.08;;;116.97;;
69185;SDS011;56298;49.246;9.410;2023-03-23T15:35:10;659.95;;;274.25;;
69185;SDS011;56298;49.246;9.410;2023-03-23T15:37:41;487.63;;;189.88;;
69185;SDS011;56298;49.246;9.410;2023-03-23T15:40:15;240.90;;;78.13;;
69185;SDS011;56298;49.246;9.410;2023-03-23T15:42:46;104.40;;;34.78;;
69185;SDS011;56298;49.246;9.410;2023-03-23T15:50:15;208.05;;;91.70;;
69185;SDS011;56298;49.246;9.410;2023-03-23T15:52:53;12.15;;;5.38;;
69185;SDS011;56298;49.246;9.410;2023-03-23T15:55:24;7.87;;;2.87;;
69185;SDS011;56298;49.246;9.410;2023-03-23T15:57:51;6.17;;;3.10;;
69185;SDS011;56298;49.246;9.410;2023-03-23T16:00:18;8.73;;;3.42;;
69185;SDS011;56298;49.246;9.410;2023-03-23T16:02:45;7.68;;;3.55;;
69185;SDS011;56298;49.246;9.410;2023-03-23T16:05:12;7.60;;;3.28;;
69185;SDS011;56298;49.246;9.410;2023-03-23T16:07:38;9.10;;;4.75;;
69185;SDS011;56298;49.246;9.410;2023-03-23T16:10:05;10.60;;;6.57;;
69185;SDS011;56298;49.246;9.410;2023-03-23T16:12:31;11.82;;;5.57;;
69185;SDS011;56298;49.246;9.410;2023-03-23T16:14:56;10.83;;;6.00;;
69185;SDS011;56298;49.246;9.410;2023-03-23T16:17:22;10.33;;;5.87;;
69185;SDS011;56298;49.246;9.410;2023-03-23T16:19:47;9.73;;;5.10;;
69185;SDS011;56298;49.246;9.410;2023-03-23T16:22:12;10.93;;;5.10;;
69185;SDS011;56298;49.246;9.410;2023-03-23T16:24:37;9.37;;;5.00;;
69185;SDS011;56298;49.246;9.410;2023-03-23T16:27:03;10.18;;;5.55;;
69185;SDS011;56298;49.246;9.410;2023-03-23T16:29:29;10.13;;;5.97;;
69185;SDS011;56298;49.246;9.410;2023-03-23T16:31:54;11.43;;;5.53;;
69185;SDS011;56298;49.246;9.410;2023-03-23T16:34:19;10.10;;;4.33;;
69185;SDS011;56298;49.246;9.410;2023-03-23T16:36:45;10.93;;;5.70;;
69185;SDS011;56298;49.246;9.410;2023-03-23T16:39:10;11.57;;;6.03;;
69185;SDS011;56298;49.246;9.410;2023-03-23T16:41:36;9.57;;;4.85;;
69185;SDS011;56298;49.246;9.410;2023-03-23T16:44:01;8.87;;;4.80;;
69185;SDS011;56298;49.246;9.410;2023-03-23T16:46:27;10.10;;;4.83;;
69185;SDS011;56298;49.246;9.410;2023-03-23T16:48:53;9.82;;;4.30;;
69185;SDS011;56298;49.246;9.410;2023-03-23T16:51:19;8.27;;;4.00;;
69185;SDS011;56298;49.246;9.410;2023-03-23T16:53:44;7.25;;;4.05;;